Ingleside, Maryland
Current Conditions -  °F | °C
As of 10:58 PM on Saturday 22 Nov 2014 (Local Time) from KDOV Reporting Station
Overcast Overcast  
Wind Chill: 33°   Ceiling: 12000
Heat Index: 41°   Visibility: 10mi
Dew Point: 26°   Wind: 13mph
Humidity: 56%   Direction: 190°S
Pressure: 30.27"   Gusts: NA
Location:  39.09°N, 75.88°W
Report Text: KDOV 230358Z AUTO 19011KT 10SM OVC120 05/M03 A3027 RMK AO2 SLP254 T00481034
Loading
Personal Weather Stations






























Interactive Weather Map New forecast layout! Learn more

10-Day Weather Forecast

Advertisements
Track Severe Weather on mobile